createdAt,value
2019-03-11T00:01:32.249Z,5.17
2019-03-11T00:04:03.980Z,5.07
2019-03-11T00:06:35.681Z,6.00
2019-03-11T00:09:07.315Z,3.53
2019-03-11T00:11:40.653Z,3.33
2019-03-11T00:14:12.374Z,4.53
2019-03-11T00:16:43.910Z,4.37
2019-03-11T00:19:15.625Z,4.47
2019-03-11T00:21:47.211Z,3.90
2019-03-11T00:24:19.138Z,2.57
2019-03-11T00:26:50.835Z,4.67
2019-03-11T00:29:22.441Z,4.03
2019-03-11T00:31:54.008Z,3.73
2019-03-11T00:34:25.736Z,2.27
2019-03-11T00:36:57.515Z,2.63
2019-03-11T00:39:29.101Z,3.13
2019-03-11T00:42:00.748Z,5.30
2019-03-11T00:44:32.329Z,3.10
2019-03-11T00:47:03.910Z,5.03
2019-03-11T00:49:35.404Z,6.03
2019-03-11T00:52:07.056Z,4.67
2019-03-11T00:54:38.712Z,3.47
2019-03-11T00:57:10.367Z,6.83
2019-03-11T00:59:41.964Z,4.97
2019-03-11T01:02:13.483Z,5.37
2019-03-11T01:04:45.116Z,4.97
2019-03-11T01:07:16.717Z,4.33
2019-03-11T01:09:48.567Z,7.53
2019-03-11T01:12:20.228Z,10.67
2019-03-11T01:14:51.870Z,7.50
2019-03-11T01:17:23.456Z,8.23
2019-03-11T01:19:55.013Z,7.00
2019-03-11T01:22:26.563Z,8.87
2019-03-11T01:24:58.122Z,6.10
2019-03-11T01:27:30.793Z,10.47
2019-03-11T01:30:02.443Z,5.73
2019-03-11T01:32:34.222Z,4.83
2019-03-11T01:35:08.243Z,7.37
2019-03-11T01:37:39.758Z,7.30
2019-03-11T01:40:17.935Z,7.57
2019-03-11T01:42:51.615Z,5.03
2019-03-11T01:45:22.721Z,6.93
2019-03-11T01:47:54.510Z,7.93
2019-03-11T01:50:26.098Z,5.60
2019-03-11T01:52:58.152Z,3.77
2019-03-11T01:55:30.040Z,7.17
2019-03-11T01:58:01.611Z,7.67
2019-03-11T02:00:33.114Z,6.77
2019-03-11T02:03:04.759Z,7.67
2019-03-11T02:05:36.421Z,4.23
2019-03-11T02:08:08.096Z,5.10
2019-03-11T02:10:40.178Z,5.60
2019-03-11T02:13:11.774Z,9.10
2019-03-11T02:15:43.299Z,5.80
2019-03-11T02:18:14.797Z,9.43
2019-03-11T02:20:46.459Z,5.00
2019-03-11T02:23:18.499Z,4.57
2019-03-11T02:25:50.001Z,8.37
2019-03-11T02:28:21.526Z,3.43
2019-03-11T02:30:53.415Z,5.03
2019-03-11T02:33:25.025Z,5.30
2019-03-11T02:35:56.547Z,4.10
2019-03-11T02:38:28.116Z,6.10
2019-03-11T02:41:00.063Z,2.87
2019-03-11T02:43:31.570Z,4.60
2019-03-11T02:46:03.109Z,6.43
2019-03-11T02:48:34.600Z,6.37
2019-03-11T02:51:06.180Z,5.57
2019-03-11T02:53:37.778Z,6.50
2019-03-11T02:56:09.377Z,4.10
2019-03-11T02:58:41.158Z,5.73
2019-03-11T03:01:15.109Z,4.73
2019-03-11T03:04:00.366Z,4.33
2019-03-11T03:06:32.082Z,3.50
2019-03-11T03:09:04.296Z,4.57
2019-03-11T03:11:35.995Z,5.67
2019-03-11T03:14:07.561Z,5.30
2019-03-11T03:16:39.085Z,9.80
2019-03-11T03:19:10.731Z,4.50
2019-03-11T03:21:42.330Z,8.17
2019-03-11T03:24:13.981Z,6.27
2019-03-11T03:26:45.766Z,8.03
2019-03-11T03:29:18.382Z,8.03
2019-03-11T03:31:50.247Z,4.00
2019-03-11T03:34:21.833Z,5.73
2019-03-11T03:36:53.370Z,3.73
2019-03-11T03:39:25.187Z,4.70
2019-03-11T03:41:56.868Z,3.67
2019-03-11T03:44:28.398Z,5.03
2019-03-11T03:47:00.071Z,4.93
2019-03-11T03:49:31.734Z,5.93
2019-03-11T03:52:03.258Z,3.93
2019-03-11T03:54:34.995Z,6.20
2019-03-11T03:57:06.493Z,6.17
2019-03-11T03:59:38.069Z,4.33
2019-03-11T04:02:09.646Z,4.53
2019-03-11T04:04:41.226Z,8.33
2019-03-11T04:07:12.747Z,6.73
2019-03-11T04:09:44.974Z,4.40
2019-03-11T04:12:16.686Z,7.20
2019-03-11T04:14:48.240Z,5.27
2019-03-11T04:17:19.960Z,4.97
2019-03-11T04:19:51.613Z,9.43
2019-03-11T04:22:23.233Z,4.10
2019-03-11T04:24:55.215Z,5.73
2019-03-11T04:27:27.788Z,6.43
2019-03-11T04:29:59.373Z,5.50
2019-03-11T04:32:31.121Z,5.73
2019-03-11T04:35:02.775Z,6.60
2019-03-11T04:37:34.353Z,4.17
2019-03-11T04:40:14.991Z,7.93
2019-03-11T04:42:46.618Z,5.23
2019-03-11T04:45:18.751Z,4.80
2019-03-11T04:47:50.456Z,5.60
2019-03-11T04:50:22.425Z,2.70
2019-03-11T04:52:54.137Z,6.90
2019-03-11T04:55:26.388Z,3.50
2019-03-11T04:57:57.974Z,4.10
2019-03-11T05:00:33.494Z,5.00
2019-03-11T05:03:05.072Z,5.20
2019-03-11T05:05:36.724Z,3.80
2019-03-11T05:08:08.320Z,4.53
2019-03-11T05:10:39.857Z,6.53
2019-03-11T05:13:11.446Z,5.33
2019-03-11T05:15:43.174Z,7.70
2019-03-11T05:18:14.800Z,2.17
2019-03-11T05:20:46.380Z,3.10
2019-03-11T05:23:18.143Z,1.70
2019-03-11T05:25:49.677Z,1.93
2019-03-11T05:28:21.220Z,3.97
2019-03-11T05:30:53.593Z,4.20
2019-03-11T05:33:25.093Z,6.83
2019-03-11T05:35:56.761Z,5.27
2019-03-11T05:38:28.378Z,6.40
2019-03-11T05:41:00.395Z,2.27
2019-03-11T05:43:31.917Z,3.17
2019-03-11T05:46:03.517Z,2.93
2019-03-11T05:48:35.251Z,2.00
2019-03-11T05:51:07.311Z,0.73
2019-03-11T05:53:40.621Z,1.47
2019-03-11T05:56:13.248Z,0.93
2019-03-11T05:58:44.896Z,0.90
2019-03-11T06:01:16.425Z,1.80
2019-03-11T06:03:48.015Z,2.03
2019-03-11T06:06:19.760Z,2.97
2019-03-11T06:08:51.570Z,2.27
2019-03-11T06:11:23.565Z,3.07
2019-03-11T06:13:55.448Z,3.87
2019-03-11T06:16:26.955Z,1.97
2019-03-11T06:18:58.547Z,3.87
2019-03-11T06:21:31.775Z,4.53
2019-03-11T06:24:03.402Z,3.40
2019-03-11T06:26:35.636Z,4.27
2019-03-11T06:29:08.240Z,4.90
2019-03-11T06:31:39.836Z,6.63
2019-03-11T06:34:11.441Z,4.70
2019-03-11T06:36:43.031Z,5.13
2019-03-11T06:39:14.756Z,9.83
2019-03-11T06:41:46.840Z,8.73
2019-03-11T06:44:18.354Z,7.27
2019-03-11T06:46:49.900Z,7.23
2019-03-11T06:49:21.449Z,7.23
2019-03-11T06:51:53.052Z,6.17
2019-03-11T06:54:24.706Z,4.83
2019-03-11T06:56:56.904Z,6.43
2019-03-11T06:59:28.414Z,6.00
2019-03-11T07:02:00.999Z,6.23
2019-03-11T07:04:32.587Z,9.17
2019-03-11T07:07:04.124Z,9.47
2019-03-11T07:09:36.058Z,6.37
2019-03-11T07:12:07.908Z,5.07
2019-03-11T07:14:39.894Z,6.57
2019-03-11T07:17:11.543Z,5.43
2019-03-11T07:19:43.261Z,6.37
2019-03-11T07:22:14.864Z,5.80
2019-03-11T07:24:47.354Z,6.77
2019-03-11T07:27:19.446Z,4.87
2019-03-11T07:29:51.074Z,6.33
2019-03-11T07:32:22.614Z,6.00
2019-03-11T07:34:54.187Z,7.20
2019-03-11T07:37:25.787Z,4.27
2019-03-11T07:39:57.854Z,5.03
2019-03-11T07:42:29.450Z,4.33
2019-03-11T07:45:01.065Z,5.37
2019-03-11T07:47:33.891Z,5.80
2019-03-11T07:50:07.719Z,6.17
2019-03-11T07:52:39.255Z,5.40
2019-03-11T07:55:15.476Z,5.30
2019-03-11T07:57:47.562Z,8.00
2019-03-11T08:00:22.233Z,7.80
2019-03-11T08:02:53.759Z,3.57
2019-03-11T08:05:25.347Z,5.03
2019-03-11T08:07:57.150Z,6.40
2019-03-11T08:10:28.846Z,5.20
2019-03-11T08:13:00.855Z,4.33
2019-03-11T08:15:33.601Z,5.00
2019-03-11T08:18:05.282Z,7.23
2019-03-11T08:20:36.930Z,5.10
2019-03-11T08:23:08.542Z,5.60
2019-03-11T08:25:40.143Z,5.03
2019-03-11T08:28:12.177Z,6.50
2019-03-11T08:30:43.832Z,5.60
2019-03-11T08:33:15.551Z,5.73
2019-03-11T08:35:47.129Z,3.90
2019-03-11T08:38:18.856Z,4.30
2019-03-11T08:40:52.423Z,4.13
2019-03-11T08:43:23.659Z,5.60
2019-03-11T08:45:55.200Z,5.43
2019-03-11T08:48:26.816Z,5.40
2019-03-11T08:50:58.357Z,2.70
2019-03-11T08:53:29.945Z,3.40
2019-03-11T08:56:01.537Z,3.20
2019-03-11T08:58:33.522Z,5.03
2019-03-11T09:01:05.065Z,3.40
2019-03-11T09:03:36.657Z,2.67
2019-03-11T09:06:08.244Z,3.17
2019-03-11T09:08:40.026Z,4.20
2019-03-11T09:11:11.694Z,2.57
2019-03-11T09:13:43.696Z,2.37
2019-03-11T09:16:15.264Z,1.97
2019-03-11T09:18:46.870Z,1.30
2019-03-11T09:21:18.623Z,2.63
2019-03-11T09:23:50.281Z,3.30
2019-03-11T09:26:22.910Z,3.27
2019-03-11T09:28:55.026Z,3.30
2019-03-11T09:31:26.810Z,4.47
2019-03-11T09:33:58.435Z,4.30
2019-03-11T09:36:30.061Z,2.73
2019-03-11T09:39:01.744Z,3.03
2019-03-11T09:41:35.006Z,2.03
2019-03-11T09:44:07.166Z,2.53
2019-03-11T09:46:38.921Z,2.47
2019-03-11T09:49:10.657Z,1.93
2019-03-11T09:51:42.533Z,2.00
2019-03-11T09:54:14.184Z,2.77
2019-03-11T09:56:45.725Z,3.50
2019-03-11T09:59:17.871Z,3.00
2019-03-11T10:01:49.372Z,4.60
2019-03-11T10:04:21.152Z,4.07
2019-03-11T10:06:52.906Z,3.47
2019-03-11T10:09:24.513Z,3.70
2019-03-11T10:11:56.255Z,3.20
2019-03-11T10:14:27.961Z,4.50
2019-03-11T10:16:59.898Z,3.73
2019-03-11T10:19:31.552Z,4.27
2019-03-11T10:22:03.074Z,3.23
2019-03-11T10:24:34.807Z,5.77
2019-03-11T10:27:06.335Z,3.23
2019-03-11T10:29:37.928Z,4.80
2019-03-11T10:32:10.027Z,5.70
2019-03-11T10:34:42.622Z,5.13
2019-03-11T10:37:14.210Z,4.13
2019-03-11T10:39:47.810Z,5.30
2019-03-11T10:42:18.933Z,3.87
2019-03-11T10:44:50.607Z,5.77
2019-03-11T10:47:22.874Z,5.17
2019-03-11T10:49:54.507Z,6.33
2019-03-11T10:52:26.098Z,5.50
2019-03-11T10:54:57.762Z,6.43
2019-03-11T10:57:29.233Z,4.57
2019-03-11T11:00:00.907Z,8.53
2019-03-11T11:02:33.975Z,5.57
2019-03-11T11:05:07.660Z,7.20
2019-03-11T11:07:39.255Z,9.00
2019-03-11T11:10:19.104Z,6.03
2019-03-11T11:12:50.679Z,5.30
2019-03-11T11:15:31.361Z,4.80
2019-03-11T11:18:03.048Z,6.33
2019-03-11T11:20:35.512Z,8.00
2019-03-11T11:23:08.115Z,7.30
2019-03-11T11:25:42.059Z,9.40
2019-03-11T11:28:14.458Z,8.77
2019-03-11T11:30:45.961Z,7.07
2019-03-11T11:33:17.571Z,9.23
2019-03-11T11:35:49.218Z,10.20
2019-03-11T11:38:20.897Z,10.43
2019-03-11T11:40:52.600Z,7.37
2019-03-11T11:43:24.115Z,8.00
2019-03-11T11:45:55.780Z,7.77
2019-03-11T11:48:27.492Z,9.93
2019-03-11T11:50:59.085Z,7.70
2019-03-11T11:53:30.747Z,2.43
2019-03-11T11:56:02.388Z,1.27
2019-03-11T11:58:34.095Z,1.33
2019-03-11T12:01:05.765Z,4.67
2019-03-11T12:03:37.410Z,2.87
2019-03-11T12:06:09.010Z,3.87
2019-03-11T12:08:40.531Z,4.53
2019-03-11T12:11:12.144Z,5.33
2019-03-11T12:13:43.873Z,4.43
2019-03-11T12:16:16.451Z,5.80
2019-03-11T12:18:47.975Z,4.57
2019-03-11T12:21:19.671Z,8.60
2019-03-11T12:23:51.194Z,4.20
2019-03-11T12:26:22.858Z,5.63
2019-03-11T12:28:54.417Z,5.83
2019-03-11T12:31:26.007Z,4.83
2019-03-11T12:33:58.043Z,6.87
2019-03-11T12:36:29.747Z,4.63
2019-03-11T12:39:01.538Z,3.80
2019-03-11T12:41:34.660Z,3.93
2019-03-11T12:44:06.175Z,4.60
2019-03-11T12:46:37.752Z,5.87
2019-03-11T12:49:09.414Z,3.90
2019-03-11T12:51:49.176Z,4.90
2019-03-11T12:54:14.177Z,7.97
2019-03-11T12:56:45.822Z,4.77
2019-03-11T12:59:17.407Z,5.30
2019-03-11T13:01:49.067Z,7.43
2019-03-11T13:04:20.641Z,9.63
2019-03-11T13:06:53.356Z,7.37
2019-03-11T13:09:25.435Z,6.23
2019-03-11T13:11:57.004Z,5.97
2019-03-11T13:14:28.676Z,4.70
2019-03-11T13:17:00.348Z,4.17
2019-03-11T13:19:33.099Z,7.07
2019-03-11T13:22:04.714Z,6.93
2019-03-11T13:24:36.285Z,4.40
2019-03-11T13:27:07.852Z,6.07
2019-03-11T13:29:39.368Z,3.47
2019-03-11T13:32:11.010Z,2.70
2019-03-11T13:34:42.650Z,1.80
2019-03-11T13:37:14.318Z,1.43
2019-03-11T13:39:45.998Z,1.97
2019-03-11T13:42:17.569Z,0.57
2019-03-11T13:44:49.242Z,2.00
2019-03-11T13:47:21.302Z,0.50
2019-03-11T13:49:52.929Z,0.40
2019-03-11T13:52:24.577Z,1.67
2019-03-11T13:54:56.175Z,1.23
2019-03-11T13:57:27.768Z,2.37
2019-03-11T13:59:59.425Z,1.40
2019-03-11T14:02:30.935Z,1.30
2019-03-11T14:05:02.527Z,2.70
2019-03-11T14:07:35.733Z,2.23
2019-03-11T14:10:10.298Z,5.30
2019-03-11T14:12:41.924Z,3.07
2019-03-11T14:15:17.970Z,2.23
2019-03-11T14:17:49.555Z,3.60
2019-03-11T14:20:21.072Z,5.40
2019-03-11T14:22:52.668Z,6.00
2019-03-11T14:25:24.249Z,5.13
2019-03-11T14:27:55.799Z,4.03
2019-03-11T14:30:27.345Z,5.57
2019-03-11T14:32:58.949Z,5.87
2019-03-11T14:35:30.561Z,8.37
2019-03-11T14:38:02.127Z,2.97
2019-03-11T14:40:34.719Z,1.80
2019-03-11T14:43:06.267Z,2.37
2019-03-11T14:45:37.826Z,3.20
2019-03-11T14:48:09.458Z,3.87
2019-03-11T14:50:40.977Z,2.63
2019-03-11T14:53:12.570Z,2.87
2019-03-11T14:55:44.097Z,1.27
2019-03-11T14:58:16.743Z,2.10
2019-03-11T15:00:48.307Z,2.80
2019-03-11T15:03:20.326Z,1.70
2019-03-11T15:05:53.564Z,0.80
2019-03-11T15:08:25.267Z,1.97
2019-03-11T15:10:57.758Z,0.87
2019-03-11T15:13:29.383Z,2.10
2019-03-11T15:16:01.150Z,1.67
2019-03-11T15:18:33.242Z,1.47
2019-03-11T15:21:04.753Z,2.63
2019-03-11T15:23:36.363Z,2.27
2019-03-11T15:26:09.794Z,2.37
2019-03-11T15:28:41.575Z,2.97
2019-03-11T15:31:16.429Z,3.77
2019-03-11T15:33:49.440Z,5.20
2019-03-11T15:36:23.108Z,6.10
2019-03-11T15:38:54.529Z,7.77
2019-03-11T15:41:26.358Z,6.33
2019-03-11T15:43:57.989Z,3.83
2019-03-11T15:46:38.872Z,4.27
2019-03-11T15:49:02.754Z,4.27
2019-03-11T15:51:36.942Z,2.83
2019-03-11T15:54:07.792Z,4.97
2019-03-11T15:56:39.314Z,4.57
2019-03-11T15:59:10.970Z,4.63
2019-03-11T16:01:42.609Z,5.87
2019-03-11T16:04:14.408Z,3.53
2019-03-11T16:06:45.910Z,2.57
2019-03-11T16:09:19.713Z,3.90
2019-03-11T16:11:50.904Z,3.97
2019-03-11T16:14:22.458Z,3.93
2019-03-11T16:16:55.043Z,5.73
2019-03-11T16:19:26.598Z,5.57
2019-03-11T16:21:58.185Z,9.33
2019-03-11T16:24:29.762Z,5.87
2019-03-11T16:27:01.543Z,7.70
2019-03-11T16:29:33.137Z,6.43
2019-03-11T16:32:04.738Z,5.50
2019-03-11T16:34:36.329Z,6.23
2019-03-11T16:37:07.911Z,8.43
2019-03-11T16:39:39.566Z,7.53
2019-03-11T16:42:11.123Z,8.43
2019-03-11T16:44:42.721Z,6.00
2019-03-11T16:47:14.242Z,9.83
2019-03-11T16:49:45.838Z,8.57
2019-03-11T16:52:17.337Z,6.60
2019-03-11T16:54:48.926Z,5.70
2019-03-11T16:57:20.476Z,6.27
2019-03-11T16:59:52.074Z,8.50
2019-03-11T17:02:23.778Z,6.90
2019-03-11T17:04:55.468Z,9.03
2019-03-11T17:07:27.201Z,7.63
2019-03-11T17:09:58.731Z,7.90
2019-03-11T17:12:30.322Z,7.07
2019-03-11T17:15:01.848Z,11.10
2019-03-11T17:17:33.758Z,7.67
2019-03-11T17:20:10.211Z,9.57
2019-03-11T17:22:42.315Z,7.73
2019-03-11T17:25:14.981Z,6.73
2019-03-11T17:27:49.838Z,10.30
2019-03-11T17:30:26.700Z,7.20
2019-03-11T17:32:58.511Z,11.20
2019-03-11T17:35:30.068Z,14.00
2019-03-11T17:38:02.047Z,9.37
2019-03-11T17:40:33.661Z,12.67
2019-03-11T17:43:05.482Z,12.53
2019-03-11T17:45:37.071Z,19.60
2019-03-11T17:48:08.820Z,12.13
2019-03-11T17:50:40.618Z,11.37
2019-03-11T17:53:19.878Z,14.07
2019-03-11T17:55:45.875Z,14.80
2019-03-11T17:58:17.456Z,12.33
2019-03-11T18:00:55.625Z,10.80
2019-03-11T18:03:24.016Z,11.30
2019-03-11T18:05:57.159Z,11.50
2019-03-11T18:08:28.916Z,13.00
2019-03-11T18:11:00.503Z,12.80
2019-03-11T18:13:32.350Z,15.17
2019-03-11T18:16:04.022Z,13.67
2019-03-11T18:18:35.615Z,10.57
2019-03-11T18:21:08.520Z,13.63
2019-03-11T18:23:40.123Z,13.57
2019-03-11T18:26:12.794Z,14.33
2019-03-11T18:28:45.471Z,12.20
2019-03-11T18:31:16.995Z,10.30
2019-03-11T18:33:48.527Z,9.97
2019-03-11T18:36:20.056Z,10.17
2019-03-11T18:38:51.545Z,6.40
2019-03-11T18:41:23.113Z,7.40
2019-03-11T18:43:54.678Z,4.73
2019-03-11T18:46:26.217Z,6.07
2019-03-11T18:48:57.827Z,7.07
2019-03-11T18:51:29.384Z,8.60
2019-03-11T18:54:01.024Z,7.27
2019-03-11T18:56:32.648Z,6.53
2019-03-11T18:59:04.185Z,6.40
2019-03-11T19:01:35.706Z,6.60
2019-03-11T19:04:07.261Z,6.60
2019-03-11T19:06:38.824Z,9.07
2019-03-11T19:09:10.414Z,9.23
2019-03-11T19:11:42.934Z,9.77
2019-03-11T19:14:14.669Z,7.43
2019-03-11T19:16:47.347Z,7.67
2019-03-11T19:19:19.046Z,9.37
2019-03-11T19:21:50.659Z,12.20
2019-03-11T19:24:22.717Z,12.67
2019-03-11T19:26:55.736Z,12.13
2019-03-11T19:29:27.604Z,8.73
2019-03-11T19:31:59.131Z,7.23
2019-03-11T19:34:30.961Z,7.50
2019-03-11T19:37:02.673Z,7.03
2019-03-11T19:39:34.188Z,5.77
2019-03-11T19:42:05.835Z,9.20
2019-03-11T19:44:37.766Z,11.17
2019-03-11T19:47:09.396Z,8.53
2019-03-11T19:49:41.132Z,8.63
2019-03-11T19:52:12.710Z,6.73
2019-03-11T19:54:44.512Z,7.87
2019-03-11T19:57:16.239Z,9.80
2019-03-11T19:59:47.840Z,10.03
2019-03-11T20:02:19.395Z,8.40
2019-03-11T20:04:51.172Z,11.40
2019-03-11T20:07:22.756Z,14.17
2019-03-11T20:09:54.562Z,9.87
2019-03-11T20:12:26.275Z,14.40
2019-03-11T20:14:58.887Z,10.47
2019-03-11T20:17:30.573Z,9.40
2019-03-11T20:20:02.166Z,11.23
2019-03-11T20:22:33.971Z,11.00
2019-03-11T20:25:13.319Z,11.20
2019-03-11T20:27:45.114Z,13.03
2019-03-11T20:30:20.164Z,13.07
2019-03-11T20:32:51.921Z,10.43
2019-03-11T20:35:23.556Z,13.40
2019-03-11T20:37:55.271Z,13.10
2019-03-11T20:40:26.991Z,13.70
2019-03-11T20:42:58.589Z,13.30
2019-03-11T20:45:30.432Z,14.67
2019-03-11T20:48:02.191Z,10.77
2019-03-11T20:50:42.022Z,13.50
2019-03-11T20:53:07.279Z,14.50
2019-03-11T20:55:38.909Z,11.67
2019-03-11T20:58:10.534Z,13.70
2019-03-11T21:00:42.189Z,12.33
2019-03-11T21:03:13.912Z,13.90
2019-03-11T21:05:53.216Z,14.70
2019-03-11T21:08:24.850Z,9.73
2019-03-11T21:10:56.940Z,14.03
2019-03-11T21:13:28.661Z,13.47
2019-03-11T21:16:00.221Z,15.00
2019-03-11T21:18:32.278Z,13.87
2019-03-11T21:21:05.341Z,9.67
2019-03-11T21:23:38.550Z,9.80
2019-03-11T21:26:13.644Z,14.47
2019-03-11T21:28:47.808Z,13.73
2019-03-11T21:31:20.437Z,14.27
2019-03-11T21:33:58.373Z,15.67
2019-03-11T21:36:25.674Z,14.53
2019-03-11T21:38:58.951Z,11.73
2019-03-11T21:41:31.015Z,13.33
2019-03-11T21:44:02.784Z,13.33
2019-03-11T21:46:34.518Z,15.27
2019-03-11T21:49:06.228Z,15.43
2019-03-11T21:51:37.736Z,12.10
2019-03-11T21:54:10.960Z,11.63
2019-03-11T21:56:43.049Z,14.43
2019-03-11T21:59:14.833Z,14.17
2019-03-11T22:01:46.667Z,11.57
2019-03-11T22:04:18.212Z,13.27
2019-03-11T22:06:49.823Z,13.17
2019-03-11T22:09:22.984Z,10.57
2019-03-11T22:11:54.636Z,16.73
2019-03-11T22:14:26.898Z,13.93
2019-03-11T22:16:58.543Z,17.17
2019-03-11T22:19:30.318Z,13.90
2019-03-11T22:22:01.899Z,13.57
2019-03-11T22:24:33.593Z,13.37
2019-03-11T22:27:05.203Z,15.73
2019-03-11T22:29:37.310Z,14.50
2019-03-11T22:32:08.960Z,12.17
2019-03-11T22:34:40.610Z,13.03
2019-03-11T22:37:12.339Z,16.43
2019-03-11T22:39:43.861Z,10.53
2019-03-11T22:42:15.519Z,15.77
2019-03-11T22:44:47.036Z,14.43
2019-03-11T22:47:18.751Z,12.03
2019-03-11T22:49:50.282Z,12.60
2019-03-11T22:52:22.945Z,14.93
2019-03-11T22:54:54.511Z,14.73
2019-03-11T22:57:26.041Z,12.90
2019-03-11T22:59:57.707Z,8.27
2019-03-11T23:02:29.516Z,13.60
2019-03-11T23:05:01.222Z,11.23
2019-03-11T23:07:34.216Z,8.80
2019-03-11T23:10:07.931Z,9.30
2019-03-11T23:12:40.175Z,11.90
2019-03-11T23:15:11.825Z,12.60
2019-03-11T23:17:43.653Z,12.73
2019-03-11T23:20:15.306Z,11.13
2019-03-11T23:22:46.842Z,11.53
2019-03-11T23:25:18.822Z,14.60
2019-03-11T23:27:51.415Z,12.93
2019-03-11T23:30:23.468Z,9.30
2019-03-11T23:32:55.059Z,11.13
2019-03-11T23:35:26.615Z,12.23
2019-03-11T23:37:58.126Z,13.37
2019-03-11T23:40:29.713Z,12.53
2019-03-11T23:43:01.818Z,12.73
2019-03-11T23:45:33.984Z,11.87
2019-03-11T23:48:05.587Z,10.00
2019-03-11T23:50:37.096Z,11.97
2019-03-11T23:53:08.604Z,10.10
2019-03-11T23:55:40.197Z,12.63
2019-03-11T23:58:12.694Z,13.43
